WEATHER DATA

YESTERDAY
Time Temp. Dewp. Hum. Wind dir Wind speed Wind gust Bar. 1h Prec. 24h Prec.
06:05 14.6 13.8 95 61 1.4 1.7 1017.3 0.0000 0.0000
06:16 14.5 13.7 95 62 1.4 2.2 1017.4 0.0000 0.0000
06:26 14.4 13.8 96 62 1.4 2.2 1017.5 0.0000 0.0000
06:36 14.4 13.8 96 60 1.4 1.7 1017.7 0.0000 0.0000
06:46 14.4 13.8 96 61 1.7 2.2 1017.4 0.0000 0.0000
06:57 14.4 13.8 96 48 1.7 2.2 1017.4 0.0000 0.0000
07:06 14.4 13.8 96 63 1.7 2.2 1017.4 0.0000 0.0000
07:16 14.6 14.1 97 60 1.4 1.7 1017.3 0.0000 0.0000
07:26 15.1 14.6 97 51 1.7 2.2 1017.4 0.0000 0.0000
07:37 15.5 15.2 98 50 1.4 2.2 1017.4 0.0000 0.0000
07:46 16 15.7 98 62 1.4 1.7 1017.5 0.0000 0.0000
07:56 16.4 16.1 98 47 1.7 2.5 1017.6 0.0000 0.0000
08:07 16.8 16.3 97 48 1.1 1.7 1017.5 0.0000 0.0000
08:17 17.2 16.6 96 47 1.4 1.7 1017.6 0.0000 0.0000
08:27 17.9 17.1 95 45 1.1 1.7 1017.7 0.0000 0.0000
08:37 18.4 17.4 94 45 1.1 2.2 1017.6 0.0000 0.0000
08:47 18.8 17.3 91 45 1.4 1.7 1017.7 0.0000 0.0000
08:57 19 17.3 90 48 1.1 1.7 1017.4 0.0000 0.0000
09:07 19.5 17.6 89 36 1.1 2.2 1017.5 0.0000 0.0000
09:17 20 18 88 56 1.4 2.2 1017.5 0.0000 0.0000
09:26 20.4 18.2 87 42 1.4 2.5 1017.5 0.0000 0.0000
09:36 20.7 18.1 85 39 1.1 2.2 1017.6 0.0000 0.0000
09:43 20.8 18.2 85 41 1.1 2.2 1017.4 0.0000 0.0000
09:56 21.3 18.5 84 293 0.8 1.7 1017.3 0.0000 0.0000
10:07 21.9 18.7 82 47 1.4 2.5 1017.4 0.0000 0.0000
10:17 22.2 18.8 81 45 1.1 2.5 1017.2 0.0000 0.0000
10:28 22.4 18.8 80 38 1.4 2.5 1017.1 0.0000 0.0000
10:37 22.5 18.9 80 39 1.1 2.2 1017.2 0.0000 0.0000
10:47 22.8 19.2 80 48 1.1 2.2 1017.2 0.0000 0.0000
10:58 23.1 19.1 78 43 1.4 3.1 1017.1 0.0000 0.0000
11:08 23.3 19 77 37 1.1 2.5 1017 0.0000 0.0000
11:18 23.6 19.3 77 35 1.1 1.7 1016.9 0.0000 0.0000
11:28 23.9 19 74 37 1.4 2.8 1016.9 0.0000 0.0000
11:39 24.2 19.3 74 18 1.1 2.2 1016.9 0.0000 0.0000
11:49 24.4 19.5 74 39 1.1 2.5 1016.8 0.0000 0.0000
11:59 24.7 19.8 74 41 1.4 2.2 1016.2 0.0000 0.0000
12:09 25.1 19.7 72 355 1.1 2.8 1016.2 0.0000 0.0000
12:20 25.5 19.6 70 29 1.1 2.2 1016.1 0.0000 0.0000
12:29 25.7 19.1 67 33 1.4 2.8 1016 0.0000 0.0000
12:39 25.9 19.3 67 21 1.4 3.6 1016 0.0000 0.0000
12:50 26.3 19.2 65 19 1.4 2.5 1016 0.0000 0.0000
13:00 26.3 19.2 65 345 1.4 2.5 1015.6 0.0000 0.0000
13:09 26.5 19.4 65 351 1.4 2.5 1015.6 0.0000 0.0000
13:19 27 19.6 64 1 1.4 2.8 1015.6 0.0000 0.0000
13:30 27 19.9 65 18 1.1 2.2 1015.4 0.0000 0.0000
13:40 27.2 20.1 65 32 1.4 2.5 1015.5 0.0000 0.0000
13:50 27.5 20.1 64 15 1.1 2.5 1015.2 0.0000 0.0000
14:00 27.6 20.2 64 34 1.1 2.2 1015 0.0000 0.0000
14:11 27.8 20.4 64 32 1.4 2.5 1014.9 0.0000 0.0000
14:20 27.9 20.5 64 41 1.4 2.8 1014.6 0.0000 0.0000
14:30 28 20.3 63 31 1.4 2.2 1014.2 0.0000 0.0000
14:41 28.1 20.7 64 45 1.1 2.5 1014.1 0.0000 0.0000
14:51 28.4 20.7 63 52 1.1 1.7 1013.9 0.0000 0.0000
15:00 28 20.3 63 32 1.1 1.7 1014 0.0000 0.0000
15:11 27.3 20.1 65 315 0.8 2.2 1014.6 0.0000 0.0000
15:21 26.6 20 67 278 1.1 2.5 1014.9 0.0000 0.0000
15:28 26 20.1 70 290 2.5 6.1 1015.2 0.4090 0.4000
15:38 24.4 19.7 75 327 1.4 3.1 1015 0.6820 0.7000
15:48 23.1 19.1 78 45 1.1 2.5 1014.8 0.8180 0.8000
15:58 22.3 19.1 82 45 1.1 2.2 1015.1 0.8180 0.8000
16:09 21.8 19 84 41 1.1 2.2 1015.3 0.8180 0.8000
16:19 21.5 19.2 87 47 1.4 1.7 1015.1 1.0900 1.1000
16:28 21.2 19.1 88 49 1.1 2.2 1015.6 0.4080 1.1000
16:39 20.9 19 89 56 1.4 2.5 1015.2 3.5440 4.2000
16:49 20.9 19.4 91 55 1.4 2.8 1015.3 3.4080 4.2000
16:59 20.9 19.7 93 39 1.4 2.5 1015.2 3.4080 4.2000
17:08 21 19.8 93 35 1.1 2.2 1015.4 3.4080 4.2000
17:19 21 19.8 93 46 1.4 1.7 1015.5 3.1360 4.2000
17:29 21.1 19.9 93 51 1.4 1.7 1015.4 3.1360 4.2000
17:39 21.2 20 93 51 1.4 1.7 1015.4 0.0000 4.2000
17:49 21.4 20.2 93 59 1.4 2.2 1015.3 0.0000 4.2000
17:59 21.4 20.2 93 55 1.1 1.7 1015.6 0.4090 4.6000
18:09 21.4 20.4 94 48 1.4 2.2 1015.3 0.5450 4.8000
18:19 21.4 20.4 94 47 1.4 1.7 1015.6 0.5450 4.8000
18:29 21.3 20.3 94 46 1.4 2.5 1015.7 0.5450 4.8000
18:39 21.2 20.4 95 59 1.4 1.7 1015.8 0.5450 4.8000
18:49 21.2 20.4 95 52 1.4 2.2 1015.7 0.5450 4.8000
18:59 21.2 20.4 95 67 1.4 1.7 1015.7 0.1360 4.8000
19:09 21.1 20.3 95 69 1.4 2.2 1015.9 0.0000 4.8000
19:19 21.1 20.3 95 74 1.7 2.5 1016 0.0000 4.8000
19:29 21 20.3 96 63 1.4 2.2 1015.7 0.0000 4.8000
19:40 21 20.3 96 65 1.7 2.2 1015.7 0.0000 4.8000
19:50 20.9 20.2 96 62 1.4 1.7 1015.9 0.0000 4.8000
20:00 20.8 20.1 96 72 1.7 2.2 1015.9 0.0000 4.8000
20:10 20.7 20 96 76 1.7 2.5 1015.9 0.0000 4.8000
20:20 20.6 19.9 96 63 1.7 2.5 1016.1 0.0000 4.8000
20:30 20.6 19.9 96 54 1.4 2.2 1016.2 0.1360 4.9000
20:40 20.5 19.8 96 65 1.7 2.2 1016.2 0.1360 4.9000
20:51 20.4 19.7 96 47 1.4 2.5 1016.2 0.1360 4.9000
21:00 20.3 19.6 96 55 1.4 2.2 1016.3 0.1360 4.9000
21:10 20.1 19.4 96 51 1.7 2.5 1016.3 0.1360 4.9000
21:21 19.8 19 95 48 1.4 2.2 1016.5 0.1360 4.9000
21:31 19.6 18.8 95 55 1.4 1.7 1016.7 0.0000 4.9000
21:40 19.5 18.7 95 65 1.4 2.2 1016.7 0.0000 4.9000
21:50 19.3 18.5 95 63 1.4 2.2 1016.8 0.0000 4.9000
22:01 19.2 18.4 95 63 1.7 2.2 1016.8 0.0000 4.9000
22:11 19 18.2 95 48 1.4 2.2 1017.1 0.0000 4.9000
22:20 18.9 18.1 95 63 1.4 1.7 1017.1 0.0000 4.9000
22:31 18.8 18 95 58 1.4 2.2 1017.1 0.0000 4.9000
22:41 18.7 17.9 95 56 1.7 2.5 1017.2 0.0000 4.9000
22:51 18.5 17.7 95 61 1.4 1.7 1017 0.0000 4.9000
23:01 18.5 17.9 96 52 1.4 2.2 1016.9 0.0000 4.9000
23:11 18.4 17.8 96 62 1.4 2.2 1016.9 0.0000 4.9000
23:22 18.3 17.7 96 50 1.4 2.2 1017 0.0000 4.9000
23:31 18.3 17.7 96 62 1.4 1.7 1017.1 0.0000 4.9000
23:41 18.2 17.6 96 61 1.4 1.7 1017.5 0.0000 4.9000
23:52 18.1 17.5 96 61 1.4 1.7 1017.7 0.0000

DAY STATISTIC

2021-07-30
TEMPERATURE
AVERAGE
21.3
HIGH
28.4
14:51
LOW
14.4
06:26
PRESSURE
AVERAGE
1016.3
HIGH
1017.7
06:36
LOW
1013.9
14:51
DEWPOINT
AVERAGE
18.6
HIGH
20.7
14:41
LOW
13.7
06:16
HUMIDITY
AVERAGE
86
HIGH
98
07:37
LOW
63
14:30
WIND SPEED
AVERAGE
1.4
HIGH
2.5
15:28
WIND GUST
AVERAGE
2.2
HIGH
6.1
15:28
WIND DIRECTION
PREVAILING
NE
83.2%
N
8.4
NE
83.2
E
3.7
SE
0.0
S
0.0
SW
0.0
W
1.9
NW
2.8
PRECIPITATION
RAIN HOUR
3.5
RAIN DAY
4.9
TEMPERATURE (°C)
LOW
14.4
HIGH
28.4
AVERAGE
21.3
PRESSURE (hpa)
LOW
1013.9
HIGH
1017.7
AVERAGE
1016.3
DEVICE